sensor_id;sensor_type;location;lat;lon;timestamp;P1;durP1;ratioP1;P2;durP2;ratioP2
25497;SDS011;13406;53.380;7.226;2022-07-17T00:01:47;2.10;;;1.40;;
25497;SDS011;13406;53.380;7.226;2022-07-17T00:04:13;5.87;;;1.93;;
25497;SDS011;13406;53.380;7.226;2022-07-17T00:06:39;4.90;;;1.90;;
25497;SDS011;13406;53.380;7.226;2022-07-17T00:09:05;3.33;;;2.27;;
25497;SDS011;13406;53.380;7.226;2022-07-17T00:11:30;2.57;;;2.10;;
25497;SDS011;13406;53.380;7.226;2022-07-17T00:13:56;5.50;;;2.77;;
25497;SDS011;13406;53.380;7.226;2022-07-17T00:16:21;4.60;;;3.10;;
25497;SDS011;13406;53.380;7.226;2022-07-17T00:18:47;5.60;;;3.90;;
25497;SDS011;13406;53.380;7.226;2022-07-17T00:21:13;6.00;;;3.63;;
25497;SDS011;13406;53.380;7.226;2022-07-17T00:23:38;5.10;;;2.37;;
25497;SDS011;13406;53.380;7.226;2022-07-17T00:26:04;3.70;;;2.10;;
25497;SDS011;13406;53.380;7.226;2022-07-17T00:28:30;4.60;;;2.50;;
25497;SDS011;13406;53.380;7.226;2022-07-17T00:30:55;5.53;;;2.00;;
25497;SDS011;13406;53.380;7.226;2022-07-17T00:33:21;3.70;;;1.50;;
25497;SDS011;13406;53.380;7.226;2022-07-17T00:35:46;4.63;;;2.27;;
25497;SDS011;13406;53.380;7.226;2022-07-17T00:38:11;2.50;;;1.77;;
25497;SDS011;13406;53.380;7.226;2022-07-17T00:40:38;4.43;;;1.97;;
25497;SDS011;13406;53.380;7.226;2022-07-17T00:43:04;2.50;;;1.70;;
25497;SDS011;13406;53.380;7.226;2022-07-17T00:45:30;2.70;;;1.77;;
25497;SDS011;13406;53.380;7.226;2022-07-17T00:47:56;3.30;;;1.60;;
25497;SDS011;13406;53.380;7.226;2022-07-17T00:50:27;3.80;;;1.70;;
25497;SDS011;13406;53.380;7.226;2022-07-17T00:52:55;4.40;;;1.60;;
25497;SDS011;13406;53.380;7.226;2022-07-17T00:55:22;3.23;;;1.47;;
25497;SDS011;13406;53.380;7.226;2022-07-17T00:57:48;4.27;;;1.73;;
25497;SDS011;13406;53.380;7.226;2022-07-17T01:00:17;4.60;;;1.67;;
25497;SDS011;13406;53.380;7.226;2022-07-17T01:02:44;9.47;;;2.00;;
25497;SDS011;13406;53.380;7.226;2022-07-17T01:05:12;4.73;;;1.73;;
25497;SDS011;13406;53.380;7.226;2022-07-17T01:07:37;2.60;;;1.23;;
25497;SDS011;13406;53.380;7.226;2022-07-17T01:10:03;4.57;;;1.77;;
25497;SDS011;13406;53.380;7.226;2022-07-17T01:12:28;7.13;;;2.33;;
25497;SDS011;13406;53.380;7.226;2022-07-17T01:14:55;3.30;;;2.10;;
25497;SDS011;13406;53.380;7.226;2022-07-17T01:17:22;7.13;;;3.27;;
25497;SDS011;13406;53.380;7.226;2022-07-17T01:19:47;5.57;;;2.73;;
25497;SDS011;13406;53.380;7.226;2022-07-17T01:22:13;3.50;;;2.40;;
25497;SDS011;13406;53.380;7.226;2022-07-17T01:24:39;4.00;;;2.23;;
25497;SDS011;13406;53.380;7.226;2022-07-17T01:27:05;5.77;;;2.33;;
25497;SDS011;13406;53.380;7.226;2022-07-17T01:29:30;3.90;;;1.97;;
25497;SDS011;13406;53.380;7.226;2022-07-17T01:31:56;3.77;;;1.77;;
25497;SDS011;13406;53.380;7.226;2022-07-17T01:34:21;3.77;;;1.87;;
25497;SDS011;13406;53.380;7.226;2022-07-17T01:36:47;3.70;;;2.33;;
25497;SDS011;13406;53.380;7.226;2022-07-17T01:39:12;3.10;;;1.80;;
25497;SDS011;13406;53.380;7.226;2022-07-17T01:41:38;4.03;;;2.50;;
25497;SDS011;13406;53.380;7.226;2022-07-17T01:44:03;3.80;;;2.27;;
25497;SDS011;13406;53.380;7.226;2022-07-17T01:46:29;3.00;;;1.80;;
25497;SDS011;13406;53.380;7.226;2022-07-17T01:48:55;2.37;;;1.30;;
25497;SDS011;13406;53.380;7.226;2022-07-17T01:51:20;4.40;;;1.90;;
25497;SDS011;13406;53.380;7.226;2022-07-17T01:53:46;5.50;;;1.70;;
25497;SDS011;13406;53.380;7.226;2022-07-17T01:56:12;2.50;;;1.57;;
25497;SDS011;13406;53.380;7.226;2022-07-17T01:58:37;5.27;;;1.57;;
25497;SDS011;13406;53.380;7.226;2022-07-17T02:01:03;2.90;;;1.57;;
25497;SDS011;13406;53.380;7.226;2022-07-17T02:03:29;4.23;;;1.73;;
25497;SDS011;13406;53.380;7.226;2022-07-17T02:05:54;4.10;;;1.63;;
25497;SDS011;13406;53.380;7.226;2022-07-17T02:08:20;3.17;;;1.70;;
25497;SDS011;13406;53.380;7.226;2022-07-17T02:10:45;5.63;;;1.73;;
25497;SDS011;13406;53.380;7.226;2022-07-17T02:13:10;2.37;;;1.30;;
25497;SDS011;13406;53.380;7.226;2022-07-17T02:15:36;4.17;;;1.50;;
25497;SDS011;13406;53.380;7.226;2022-07-17T02:18:01;3.30;;;1.70;;
25497;SDS011;13406;53.380;7.226;2022-07-17T02:20:27;2.90;;;1.30;;
25497;SDS011;13406;53.380;7.226;2022-07-17T02:22:52;4.10;;;1.80;;
25497;SDS011;13406;53.380;7.226;2022-07-17T02:25:18;2.03;;;1.50;;
25497;SDS011;13406;53.380;7.226;2022-07-17T02:27:44;3.03;;;1.90;;
25497;SDS011;13406;53.380;7.226;2022-07-17T02:30:10;6.30;;;2.27;;
25497;SDS011;13406;53.380;7.226;2022-07-17T02:32:40;3.23;;;1.80;;
25497;SDS011;13406;53.380;7.226;2022-07-17T02:35:07;5.13;;;2.40;;
25497;SDS011;13406;53.380;7.226;2022-07-17T02:37:34;3.40;;;1.87;;
25497;SDS011;13406;53.380;7.226;2022-07-17T02:40:01;5.67;;;1.83;;
25497;SDS011;13406;53.380;7.226;2022-07-17T02:42:27;6.23;;;2.20;;
25497;SDS011;13406;53.380;7.226;2022-07-17T02:44:54;4.63;;;1.80;;
25497;SDS011;13406;53.380;7.226;2022-07-17T02:47:21;3.60;;;2.20;;
25497;SDS011;13406;53.380;7.226;2022-07-17T02:49:54;2.57;;;1.93;;
25497;SDS011;13406;53.380;7.226;2022-07-17T02:52:19;4.33;;;1.80;;
25497;SDS011;13406;53.380;7.226;2022-07-17T02:54:45;2.90;;;1.70;;
25497;SDS011;13406;53.380;7.226;2022-07-17T02:57:11;3.50;;;1.53;;
25497;SDS011;13406;53.380;7.226;2022-07-17T02:59:37;4.00;;;1.70;;
25497;SDS011;13406;53.380;7.226;2022-07-17T03:02:02;2.50;;;1.40;;
25497;SDS011;13406;53.380;7.226;2022-07-17T03:04:29;7.23;;;2.50;;
25497;SDS011;13406;53.380;7.226;2022-07-17T03:06:54;3.80;;;2.17;;
25497;SDS011;13406;53.380;7.226;2022-07-17T03:09:19;3.83;;;2.00;;
25497;SDS011;13406;53.380;7.226;2022-07-17T03:11:45;3.43;;;1.43;;
25497;SDS011;13406;53.380;7.226;2022-07-17T03:14:10;3.40;;;1.60;;
25497;SDS011;13406;53.380;7.226;2022-07-17T03:16:36;3.33;;;1.60;;
25497;SDS011;13406;53.380;7.226;2022-07-17T03:19:01;3.17;;;1.60;;
25497;SDS011;13406;53.380;7.226;2022-07-17T03:21:27;2.27;;;1.30;;
25497;SDS011;13406;53.380;7.226;2022-07-17T03:23:52;4.60;;;1.60;;
25497;SDS011;13406;53.380;7.226;2022-07-17T03:26:18;2.40;;;1.60;;
25497;SDS011;13406;53.380;7.226;2022-07-17T03:28:43;2.70;;;1.77;;
25497;SDS011;13406;53.380;7.226;2022-07-17T03:31:08;2.93;;;1.70;;
25497;SDS011;13406;53.380;7.226;2022-07-17T03:33:34;5.07;;;1.90;;
25497;SDS011;13406;53.380;7.226;2022-07-17T03:35:59;2.63;;;1.20;;
25497;SDS011;13406;53.380;7.226;2022-07-17T03:38:24;3.83;;;1.90;;
25497;SDS011;13406;53.380;7.226;2022-07-17T03:40:50;3.77;;;1.60;;
25497;SDS011;13406;53.380;7.226;2022-07-17T03:43:15;3.50;;;1.73;;
25497;SDS011;13406;53.380;7.226;2022-07-17T03:45:41;3.00;;;1.53;;
25497;SDS011;13406;53.380;7.226;2022-07-17T03:48:06;4.93;;;1.90;;
25497;SDS011;13406;53.380;7.226;2022-07-17T03:50:32;4.90;;;1.40;;
25497;SDS011;13406;53.380;7.226;2022-07-17T03:52:57;3.90;;;1.70;;
25497;SDS011;13406;53.380;7.226;2022-07-17T03:55:22;1.70;;;1.23;;
25497;SDS011;13406;53.380;7.226;2022-07-17T03:57:48;2.63;;;1.50;;
25497;SDS011;13406;53.380;7.226;2022-07-17T04:00:13;5.37;;;1.50;;
25497;SDS011;13406;53.380;7.226;2022-07-17T04:02:40;3.77;;;1.17;;
25497;SDS011;13406;53.380;7.226;2022-07-17T04:05:06;3.90;;;1.27;;
25497;SDS011;13406;53.380;7.226;2022-07-17T04:07:35;3.30;;;1.50;;
25497;SDS011;13406;53.380;7.226;2022-07-17T04:10:04;3.77;;;1.30;;
25497;SDS011;13406;53.380;7.226;2022-07-17T04:12:31;6.43;;;2.17;;
25497;SDS011;13406;53.380;7.226;2022-07-17T04:14:56;5.00;;;1.90;;
25497;SDS011;13406;53.380;7.226;2022-07-17T04:17:22;2.40;;;1.40;;
25497;SDS011;13406;53.380;7.226;2022-07-17T04:19:48;2.00;;;1.20;;
25497;SDS011;13406;53.380;7.226;2022-07-17T04:22:14;2.80;;;1.40;;
25497;SDS011;13406;53.380;7.226;2022-07-17T04:24:40;3.67;;;1.43;;
25497;SDS011;13406;53.380;7.226;2022-07-17T04:27:06;2.23;;;1.17;;
25497;SDS011;13406;53.380;7.226;2022-07-17T04:29:31;3.20;;;1.50;;
25497;SDS011;13406;53.380;7.226;2022-07-17T04:31:57;3.50;;;1.33;;
25497;SDS011;13406;53.380;7.226;2022-07-17T04:34:22;3.20;;;0.97;;
25497;SDS011;13406;53.380;7.226;2022-07-17T04:36:48;4.13;;;1.40;;
25497;SDS011;13406;53.380;7.226;2022-07-17T04:39:13;1.63;;;1.20;;
25497;SDS011;13406;53.380;7.226;2022-07-17T04:41:38;3.70;;;1.50;;
25497;SDS011;13406;53.380;7.226;2022-07-17T04:44:04;2.40;;;1.00;;
25497;SDS011;13406;53.380;7.226;2022-07-17T04:46:29;1.67;;;1.20;;
25497;SDS011;13406;53.380;7.226;2022-07-17T04:48:55;2.33;;;1.20;;
25497;SDS011;13406;53.380;7.226;2022-07-17T04:51:20;3.83;;;1.17;;
25497;SDS011;13406;53.380;7.226;2022-07-17T04:53:45;3.00;;;1.30;;
25497;SDS011;13406;53.380;7.226;2022-07-17T04:56:11;1.77;;;0.87;;
25497;SDS011;13406;53.380;7.226;2022-07-17T04:58:36;3.83;;;1.13;;
25497;SDS011;13406;53.380;7.226;2022-07-17T05:01:02;2.40;;;1.23;;
25497;SDS011;13406;53.380;7.226;2022-07-17T05:03:27;4.47;;;1.30;;
25497;SDS011;13406;53.380;7.226;2022-07-17T05:05:53;2.90;;;1.37;;
25497;SDS011;13406;53.380;7.226;2022-07-17T05:08:18;4.10;;;1.23;;
25497;SDS011;13406;53.380;7.226;2022-07-17T05:10:43;2.00;;;1.00;;
25497;SDS011;13406;53.380;7.226;2022-07-17T05:13:10;2.30;;;1.07;;
25497;SDS011;13406;53.380;7.226;2022-07-17T05:15:37;1.57;;;1.27;;
25497;SDS011;13406;53.380;7.226;2022-07-17T05:18:03;2.20;;;1.20;;
25497;SDS011;13406;53.380;7.226;2022-07-17T05:20:28;1.67;;;1.10;;
25497;SDS011;13406;53.380;7.226;2022-07-17T05:22:53;4.83;;;1.43;;
25497;SDS011;13406;53.380;7.226;2022-07-17T05:25:19;1.90;;;1.30;;
25497;SDS011;13406;53.380;7.226;2022-07-17T05:27:44;4.20;;;1.23;;
25497;SDS011;13406;53.380;7.226;2022-07-17T05:30:10;2.83;;;1.10;;
25497;SDS011;13406;53.380;7.226;2022-07-17T05:32:35;4.33;;;1.40;;
25497;SDS011;13406;53.380;7.226;2022-07-17T05:35:01;2.07;;;1.20;;
25497;SDS011;13406;53.380;7.226;2022-07-17T05:37:26;3.80;;;1.57;;
25497;SDS011;13406;53.380;7.226;2022-07-17T05:39:51;5.93;;;1.70;;
25497;SDS011;13406;53.380;7.226;2022-07-17T05:42:17;2.50;;;1.10;;
25497;SDS011;13406;53.380;7.226;2022-07-17T05:44:42;1.93;;;1.30;;
25497;SDS011;13406;53.380;7.226;2022-07-17T05:47:08;4.20;;;1.30;;
25497;SDS011;13406;53.380;7.226;2022-07-17T05:49:33;3.20;;;1.20;;
25497;SDS011;13406;53.380;7.226;2022-07-17T05:51:59;6.20;;;1.33;;
25497;SDS011;13406;53.380;7.226;2022-07-17T05:54:25;4.97;;;1.40;;
25497;SDS011;13406;53.380;7.226;2022-07-17T05:56:50;4.77;;;1.33;;
25497;SDS011;13406;53.380;7.226;2022-07-17T05:59:16;3.73;;;1.10;;
25497;SDS011;13406;53.380;7.226;2022-07-17T06:01:41;3.63;;;1.60;;
25497;SDS011;13406;53.380;7.226;2022-07-17T06:04:07;2.97;;;1.30;;
25497;SDS011;13406;53.380;7.226;2022-07-17T06:06:32;2.00;;;1.37;;
25497;SDS011;13406;53.380;7.226;2022-07-17T06:08:58;1.93;;;1.27;;
25497;SDS011;13406;53.380;7.226;2022-07-17T06:11:23;2.77;;;1.30;;
25497;SDS011;13406;53.380;7.226;2022-07-17T06:13:48;2.90;;;1.10;;
25497;SDS011;13406;53.380;7.226;2022-07-17T06:16:14;1.60;;;1.00;;
25497;SDS011;13406;53.380;7.226;2022-07-17T06:18:39;6.77;;;2.07;;
25497;SDS011;13406;53.380;7.226;2022-07-17T06:21:05;4.87;;;1.60;;
25497;SDS011;13406;53.380;7.226;2022-07-17T06:23:30;2.20;;;1.30;;
25497;SDS011;13406;53.380;7.226;2022-07-17T06:25:57;3.63;;;1.30;;
25497;SDS011;13406;53.380;7.226;2022-07-17T06:28:22;4.20;;;1.40;;
25497;SDS011;13406;53.380;7.226;2022-07-17T06:30:47;3.23;;;1.27;;
25497;SDS011;13406;53.380;7.226;2022-07-17T06:33:13;1.60;;;0.87;;
25497;SDS011;13406;53.380;7.226;2022-07-17T06:35:38;1.53;;;1.00;;
25497;SDS011;13406;53.380;7.226;2022-07-17T06:38:04;3.67;;;1.60;;
25497;SDS011;13406;53.380;7.226;2022-07-17T06:40:29;3.40;;;1.10;;
25497;SDS011;13406;53.380;7.226;2022-07-17T06:42:55;4.80;;;1.60;;
25497;SDS011;13406;53.380;7.226;2022-07-17T06:45:20;1.90;;;1.17;;
25497;SDS011;13406;53.380;7.226;2022-07-17T06:47:46;2.37;;;1.10;;
25497;SDS011;13406;53.380;7.226;2022-07-17T06:50:11;1.67;;;0.90;;
25497;SDS011;13406;53.380;7.226;2022-07-17T06:52:37;4.47;;;1.40;;
25497;SDS011;13406;53.380;7.226;2022-07-17T06:55:02;4.30;;;1.23;;
25497;SDS011;13406;53.380;7.226;2022-07-17T06:57:28;5.13;;;0.97;;
25497;SDS011;13406;53.380;7.226;2022-07-17T06:59:54;5.13;;;1.27;;
25497;SDS011;13406;53.380;7.226;2022-07-17T07:02:19;6.27;;;1.30;;
25497;SDS011;13406;53.380;7.226;2022-07-17T07:04:44;6.47;;;1.03;;
25497;SDS011;13406;53.380;7.226;2022-07-17T07:07:10;2.93;;;1.40;;
25497;SDS011;13406;53.380;7.226;2022-07-17T07:09:36;5.10;;;1.17;;
25497;SDS011;13406;53.380;7.226;2022-07-17T07:12:01;2.77;;;1.00;;
25497;SDS011;13406;53.380;7.226;2022-07-17T07:14:27;3.33;;;1.30;;
25497;SDS011;13406;53.380;7.226;2022-07-17T07:16:53;2.40;;;0.90;;
25497;SDS011;13406;53.380;7.226;2022-07-17T07:19:18;4.50;;;1.00;;
25497;SDS011;13406;53.380;7.226;2022-07-17T07:21:44;4.37;;;1.40;;
25497;SDS011;13406;53.380;7.226;2022-07-17T07:24:09;2.60;;;1.10;;
25497;SDS011;13406;53.380;7.226;2022-07-17T07:26:34;4.80;;;1.03;;
25497;SDS011;13406;53.380;7.226;2022-07-17T07:29:00;3.50;;;0.90;;
25497;SDS011;13406;53.380;7.226;2022-07-17T07:31:25;4.60;;;1.30;;
25497;SDS011;13406;53.380;7.226;2022-07-17T07:33:51;1.80;;;0.93;;
25497;SDS011;13406;53.380;7.226;2022-07-17T07:36:17;2.10;;;0.80;;
25497;SDS011;13406;53.380;7.226;2022-07-17T07:38:42;3.10;;;1.10;;
25497;SDS011;13406;53.380;7.226;2022-07-17T07:41:10;5.47;;;1.07;;
25497;SDS011;13406;53.380;7.226;2022-07-17T07:43:35;7.83;;;1.30;;
25497;SDS011;13406;53.380;7.226;2022-07-17T07:46:01;3.30;;;1.23;;
25497;SDS011;13406;53.380;7.226;2022-07-17T07:48:27;2.20;;;1.00;;
25497;SDS011;13406;53.380;7.226;2022-07-17T07:50:53;1.50;;;0.87;;
25497;SDS011;13406;53.380;7.226;2022-07-17T07:53:19;3.80;;;1.10;;
25497;SDS011;13406;53.380;7.226;2022-07-17T07:55:44;2.40;;;0.97;;
25497;SDS011;13406;53.380;7.226;2022-07-17T07:58:11;6.30;;;1.07;;
25497;SDS011;13406;53.380;7.226;2022-07-17T08:00:38;1.60;;;1.00;;
25497;SDS011;13406;53.380;7.226;2022-07-17T08:03:05;1.60;;;1.00;;
25497;SDS011;13406;53.380;7.226;2022-07-17T08:05:30;2.90;;;1.10;;
25497;SDS011;13406;53.380;7.226;2022-07-17T08:07:56;4.30;;;1.30;;
25497;SDS011;13406;53.380;7.226;2022-07-17T08:10:22;3.37;;;1.20;;
25497;SDS011;13406;53.380;7.226;2022-07-17T08:12:48;4.43;;;1.20;;
25497;SDS011;13406;53.380;7.226;2022-07-17T08:15:14;2.47;;;1.00;;
25497;SDS011;13406;53.380;7.226;2022-07-17T08:17:41;2.93;;;1.10;;
25497;SDS011;13406;53.380;7.226;2022-07-17T08:20:07;3.23;;;1.20;;
25497;SDS011;13406;53.380;7.226;2022-07-17T08:22:33;4.23;;;1.50;;
25497;SDS011;13406;53.380;7.226;2022-07-17T08:24:59;2.30;;;1.23;;
25497;SDS011;13406;53.380;7.226;2022-07-17T08:27:24;2.97;;;1.10;;
25497;SDS011;13406;53.380;7.226;2022-07-17T08:29:50;1.87;;;0.97;;
25497;SDS011;13406;53.380;7.226;2022-07-17T08:32:15;1.47;;;0.80;;
25497;SDS011;13406;53.380;7.226;2022-07-17T08:34:40;3.90;;;1.33;;
25497;SDS011;13406;53.380;7.226;2022-07-17T08:37:06;3.50;;;1.20;;
25497;SDS011;13406;53.380;7.226;2022-07-17T08:39:31;6.40;;;1.23;;
25497;SDS011;13406;53.380;7.226;2022-07-17T08:41:57;1.80;;;0.83;;
25497;SDS011;13406;53.380;7.226;2022-07-17T08:44:22;4.67;;;1.23;;
25497;SDS011;13406;53.380;7.226;2022-07-17T08:46:48;5.73;;;1.33;;
25497;SDS011;13406;53.380;7.226;2022-07-17T08:49:13;2.90;;;1.10;;
25497;SDS011;13406;53.380;7.226;2022-07-17T08:51:40;1.67;;;1.10;;
25497;SDS011;13406;53.380;7.226;2022-07-17T08:54:06;2.53;;;1.00;;
25497;SDS011;13406;53.380;7.226;2022-07-17T08:56:31;3.00;;;1.47;;
25497;SDS011;13406;53.380;7.226;2022-07-17T08:58:56;4.00;;;1.00;;
25497;SDS011;13406;53.380;7.226;2022-07-17T09:01:22;2.70;;;1.33;;
25497;SDS011;13406;53.380;7.226;2022-07-17T09:04:00;6.30;;;1.20;;
25497;SDS011;13406;53.380;7.226;2022-07-17T09:06:31;4.47;;;1.20;;
25497;SDS011;13406;53.380;7.226;2022-07-17T09:11:40;1.03;;;0.80;;
25497;SDS011;13406;53.380;7.226;2022-07-17T09:14:15;2.30;;;0.90;;
25497;SDS011;13406;53.380;7.226;2022-07-17T09:16:51;3.63;;;1.27;;
25497;SDS011;13406;53.380;7.226;2022-07-17T09:19:24;3.77;;;1.10;;
25497;SDS011;13406;53.380;7.226;2022-07-17T09:21:51;2.50;;;1.27;;
25497;SDS011;13406;53.380;7.226;2022-07-17T09:24:17;0.90;;;0.83;;
25497;SDS011;13406;53.380;7.226;2022-07-17T09:26:45;1.57;;;0.93;;
25497;SDS011;13406;53.380;7.226;2022-07-17T09:29:11;2.63;;;1.00;;
25497;SDS011;13406;53.380;7.226;2022-07-17T09:31:37;5.83;;;1.63;;
25497;SDS011;13406;53.380;7.226;2022-07-17T09:34:03;4.63;;;1.10;;
25497;SDS011;13406;53.380;7.226;2022-07-17T09:36:28;4.90;;;1.20;;
25497;SDS011;13406;53.380;7.226;2022-07-17T09:38:55;3.73;;;1.13;;
25497;SDS011;13406;53.380;7.226;2022-07-17T09:41:22;2.57;;;0.90;;
25497;SDS011;13406;53.380;7.226;2022-07-17T09:46:22;3.20;;;0.90;;
25497;SDS011;13406;53.380;7.226;2022-07-17T09:48:53;2.07;;;1.17;;
25497;SDS011;13406;53.380;7.226;2022-07-17T09:51:21;2.10;;;1.00;;
25497;SDS011;13406;53.380;7.226;2022-07-17T09:53:58;3.03;;;1.03;;
25497;SDS011;13406;53.380;7.226;2022-07-17T09:56:26;1.30;;;1.00;;
25497;SDS011;13406;53.380;7.226;2022-07-17T09:58:55;1.67;;;0.90;;
25497;SDS011;13406;53.380;7.226;2022-07-17T10:01:25;2.67;;;0.90;;
25497;SDS011;13406;53.380;7.226;2022-07-17T10:03:51;1.90;;;1.07;;
25497;SDS011;13406;53.380;7.226;2022-07-17T10:06:18;1.30;;;0.90;;
25497;SDS011;13406;53.380;7.226;2022-07-17T10:08:45;1.63;;;0.90;;
25497;SDS011;13406;53.380;7.226;2022-07-17T10:11:12;3.33;;;1.10;;
25497;SDS011;13406;53.380;7.226;2022-07-17T10:13:40;2.30;;;0.90;;
25497;SDS011;13406;53.380;7.226;2022-07-17T10:16:08;3.47;;;1.20;;
25497;SDS011;13406;53.380;7.226;2022-07-17T10:18:37;2.47;;;1.20;;
25497;SDS011;13406;53.380;7.226;2022-07-17T10:21:10;1.47;;;0.97;;
25497;SDS011;13406;53.380;7.226;2022-07-17T10:23:46;1.40;;;1.00;;
25497;SDS011;13406;53.380;7.226;2022-07-17T10:29:01;2.73;;;0.97;;
25497;SDS011;13406;53.380;7.226;2022-07-17T10:31:28;1.33;;;0.80;;
25497;SDS011;13406;53.380;7.226;2022-07-17T10:34:00;5.00;;;1.60;;
25497;SDS011;13406;53.380;7.226;2022-07-17T10:36:34;3.00;;;1.27;;
25497;SDS011;13406;53.380;7.226;2022-07-17T10:39:17;2.03;;;1.13;;
25497;SDS011;13406;53.380;7.226;2022-07-17T10:41:59;1.70;;;1.00;;
25497;SDS011;13406;53.380;7.226;2022-07-17T10:44:29;2.00;;;1.00;;
25497;SDS011;13406;53.380;7.226;2022-07-17T10:46:57;4.93;;;1.40;;
25497;SDS011;13406;53.380;7.226;2022-07-17T10:49:23;2.23;;;0.90;;
25497;SDS011;13406;53.380;7.226;2022-07-17T10:51:49;2.07;;;1.07;;
25497;SDS011;13406;53.380;7.226;2022-07-17T10:54:15;5.00;;;1.40;;
25497;SDS011;13406;53.380;7.226;2022-07-17T10:56:42;4.00;;;1.77;;
25497;SDS011;13406;53.380;7.226;2022-07-17T10:59:09;1.87;;;1.00;;
25497;SDS011;13406;53.380;7.226;2022-07-17T11:01:35;1.63;;;1.40;;
25497;SDS011;13406;53.380;7.226;2022-07-17T11:04:01;1.97;;;1.10;;
25497;SDS011;13406;53.380;7.226;2022-07-17T11:08:57;2.37;;;0.90;;
25497;SDS011;13406;53.380;7.226;2022-07-17T11:11:38;4.60;;;1.00;;
25497;SDS011;13406;53.380;7.226;2022-07-17T11:16:48;2.07;;;1.00;;
25497;SDS011;13406;53.380;7.226;2022-07-17T11:19:29;3.73;;;1.37;;
25497;SDS011;13406;53.380;7.226;2022-07-17T11:22:00;2.20;;;0.80;;
25497;SDS011;13406;53.380;7.226;2022-07-17T11:24:42;2.70;;;1.17;;
25497;SDS011;13406;53.380;7.226;2022-07-17T11:27:10;3.30;;;0.90;;
25497;SDS011;13406;53.380;7.226;2022-07-17T11:29:39;2.30;;;0.80;;
25497;SDS011;13406;53.380;7.226;2022-07-17T11:32:05;2.40;;;0.93;;
25497;SDS011;13406;53.380;7.226;2022-07-17T11:34:31;2.93;;;1.33;;
25497;SDS011;13406;53.380;7.226;2022-07-17T11:37:00;2.70;;;1.30;;
25497;SDS011;13406;53.380;7.226;2022-07-17T11:39:36;1.23;;;1.07;;
25497;SDS011;13406;53.380;7.226;2022-07-17T11:42:12;1.90;;;1.30;;
25497;SDS011;13406;53.380;7.226;2022-07-17T11:44:40;3.93;;;1.10;;
25497;SDS011;13406;53.380;7.226;2022-07-17T11:47:06;7.73;;;1.40;;
25497;SDS011;13406;53.380;7.226;2022-07-17T11:49:32;2.53;;;1.33;;
25497;SDS011;13406;53.380;7.226;2022-07-17T11:52:07;2.80;;;1.20;;
25497;SDS011;13406;53.380;7.226;2022-07-17T11:54:44;2.43;;;1.00;;
25497;SDS011;13406;53.380;7.226;2022-07-17T11:57:10;5.63;;;1.40;;
25497;SDS011;13406;53.380;7.226;2022-07-17T11:59:35;4.93;;;1.10;;
25497;SDS011;13406;53.380;7.226;2022-07-17T12:02:08;3.13;;;1.20;;
25497;SDS011;13406;53.380;7.226;2022-07-17T12:04:34;2.10;;;1.40;;
25497;SDS011;13406;53.380;7.226;2022-07-17T12:07:01;2.73;;;1.10;;
25497;SDS011;13406;53.380;7.226;2022-07-17T12:09:29;2.00;;;1.00;;
25497;SDS011;13406;53.380;7.226;2022-07-17T12:11:59;3.83;;;1.13;;
25497;SDS011;13406;53.380;7.226;2022-07-17T12:14:25;2.50;;;1.03;;
25497;SDS011;13406;53.380;7.226;2022-07-17T12:16:51;7.10;;;1.20;;
25497;SDS011;13406;53.380;7.226;2022-07-17T12:19:27;2.73;;;1.53;;
25497;SDS011;13406;53.380;7.226;2022-07-17T12:24:31;2.00;;;0.90;;
25497;SDS011;13406;53.380;7.226;2022-07-17T12:27:01;3.20;;;1.10;;
25497;SDS011;13406;53.380;7.226;2022-07-17T12:29:29;3.90;;;1.20;;
25497;SDS011;13406;53.380;7.226;2022-07-17T12:32:02;1.97;;;1.20;;
25497;SDS011;13406;53.380;7.226;2022-07-17T12:34:33;2.50;;;1.20;;
25497;SDS011;13406;53.380;7.226;2022-07-17T12:36:59;1.43;;;1.17;;
25497;SDS011;13406;53.380;7.226;2022-07-17T12:39:25;5.27;;;1.20;;
25497;SDS011;13406;53.380;7.226;2022-07-17T12:41:50;3.70;;;1.67;;
25497;SDS011;13406;53.380;7.226;2022-07-17T12:44:16;2.53;;;1.17;;
25497;SDS011;13406;53.380;7.226;2022-07-17T12:46:41;2.97;;;1.40;;
25497;SDS011;13406;53.380;7.226;2022-07-17T12:49:07;1.93;;;1.20;;
25497;SDS011;13406;53.380;7.226;2022-07-17T12:51:32;5.80;;;1.13;;
25497;SDS011;13406;53.380;7.226;2022-07-17T12:53:58;1.10;;;1.00;;
25497;SDS011;13406;53.380;7.226;2022-07-17T12:56:24;1.20;;;0.90;;
25497;SDS011;13406;53.380;7.226;2022-07-17T12:58:49;3.10;;;1.43;;
25497;SDS011;13406;53.380;7.226;2022-07-17T13:01:18;3.97;;;1.30;;
25497;SDS011;13406;53.380;7.226;2022-07-17T13:03:43;2.60;;;1.13;;
25497;SDS011;13406;53.380;7.226;2022-07-17T13:06:09;2.30;;;1.67;;
25497;SDS011;13406;53.380;7.226;2022-07-17T13:08:34;2.60;;;1.70;;
25497;SDS011;13406;53.380;7.226;2022-07-17T13:11:01;2.60;;;1.30;;
25497;SDS011;13406;53.380;7.226;2022-07-17T13:13:27;3.97;;;1.20;;
25497;SDS011;13406;53.380;7.226;2022-07-17T13:15:54;4.40;;;1.50;;
25497;SDS011;13406;53.380;7.226;2022-07-17T13:18:20;2.53;;;1.43;;
25497;SDS011;13406;53.380;7.226;2022-07-17T13:20:46;2.33;;;1.23;;
25497;SDS011;13406;53.380;7.226;2022-07-17T13:23:11;3.63;;;1.53;;
25497;SDS011;13406;53.380;7.226;2022-07-17T13:25:37;3.10;;;1.30;;
25497;SDS011;13406;53.380;7.226;2022-07-17T13:28:03;2.17;;;1.50;;
25497;SDS011;13406;53.380;7.226;2022-07-17T13:30:29;2.10;;;1.53;;
25497;SDS011;13406;53.380;7.226;2022-07-17T13:32:55;2.07;;;1.60;;
25497;SDS011;13406;53.380;7.226;2022-07-17T13:35:20;2.23;;;1.90;;
25497;SDS011;13406;53.380;7.226;2022-07-17T13:37:46;4.70;;;2.10;;
25497;SDS011;13406;53.380;7.226;2022-07-17T13:40:11;3.00;;;1.97;;
25497;SDS011;13406;53.380;7.226;2022-07-17T13:42:37;3.63;;;2.00;;
25497;SDS011;13406;53.380;7.226;2022-07-17T13:45:03;4.23;;;2.00;;
25497;SDS011;13406;53.380;7.226;2022-07-17T13:47:29;5.03;;;1.50;;
25497;SDS011;13406;53.380;7.226;2022-07-17T13:49:54;2.63;;;1.37;;
25497;SDS011;13406;53.380;7.226;2022-07-17T13:52:20;2.57;;;1.47;;
25497;SDS011;13406;53.380;7.226;2022-07-17T13:54:46;3.93;;;1.77;;
25497;SDS011;13406;53.380;7.226;2022-07-17T13:57:11;3.23;;;1.73;;
25497;SDS011;13406;53.380;7.226;2022-07-17T13:59:37;2.23;;;1.70;;
25497;SDS011;13406;53.380;7.226;2022-07-17T14:02:02;2.40;;;1.90;;
25497;SDS011;13406;53.380;7.226;2022-07-17T14:04:28;2.60;;;1.90;;
25497;SDS011;13406;53.380;7.226;2022-07-17T14:06:53;3.00;;;1.60;;
25497;SDS011;13406;53.380;7.226;2022-07-17T14:09:18;2.80;;;2.00;;
25497;SDS011;13406;53.380;7.226;2022-07-17T14:11:44;2.97;;;1.37;;
25497;SDS011;13406;53.380;7.226;2022-07-17T14:14:09;3.03;;;1.70;;
25497;SDS011;13406;53.380;7.226;2022-07-17T14:16:35;3.73;;;1.77;;
25497;SDS011;13406;53.380;7.226;2022-07-17T14:19:00;4.23;;;2.10;;
25497;SDS011;13406;53.380;7.226;2022-07-17T14:21:33;5.33;;;2.20;;
25497;SDS011;13406;53.380;7.226;2022-07-17T14:24:01;2.40;;;1.57;;
25497;SDS011;13406;53.380;7.226;2022-07-17T14:26:27;2.40;;;1.60;;
25497;SDS011;13406;53.380;7.226;2022-07-17T14:28:53;2.80;;;1.60;;
25497;SDS011;13406;53.380;7.226;2022-07-17T14:31:18;3.77;;;1.60;;
25497;SDS011;13406;53.380;7.226;2022-07-17T14:33:44;4.10;;;1.90;;
25497;SDS011;13406;53.380;7.226;2022-07-17T14:36:11;2.73;;;1.93;;
25497;SDS011;13406;53.380;7.226;2022-07-17T14:38:37;2.40;;;1.77;;
25497;SDS011;13406;53.380;7.226;2022-07-17T14:41:02;2.43;;;1.40;;
25497;SDS011;13406;53.380;7.226;2022-07-17T14:43:28;2.53;;;2.30;;
25497;SDS011;13406;53.380;7.226;2022-07-17T14:45:54;2.37;;;1.70;;
25497;SDS011;13406;53.380;7.226;2022-07-17T14:48:21;2.70;;;2.17;;
25497;SDS011;13406;53.380;7.226;2022-07-17T14:50:46;2.93;;;1.77;;
25497;SDS011;13406;53.380;7.226;2022-07-17T14:53:12;6.00;;;2.27;;
25497;SDS011;13406;53.380;7.226;2022-07-17T14:55:38;3.23;;;2.47;;
25497;SDS011;13406;53.380;7.226;2022-07-17T14:58:03;4.13;;;3.03;;
25497;SDS011;13406;53.380;7.226;2022-07-17T15:00:29;4.27;;;2.20;;